Time;durP1;ratioP1;P1;durP2;ratioP2;P2;SDS_P1;SDS_P2;PMS_P1;PMS_P2;Temp;Humidity;BMP_temperature;BMP_pressure;BME280_temperature;BME280_humidity;BME280_pressure;Samples;Min_cycle;Max_cycle;Signal;HPM_P1;HPM_P2
2022/07/19 00:02:00;;;;;;;5.72;3.55;;;17.40;99.90;;;;;;5015467;28;20428;-77
2022/07/19 00:04:25;;;;;;;5.43;3.42;;;17.40;99.90;;;;;;5021747;28;20041;-77
2022/07/19 00:06:51;;;;;;;3.88;3.20;;;17.40;99.90;;;;;;5010637;28;20037;-77
2022/07/19 00:09:16;;;;;;;10.05;3.95;;;17.40;99.90;;;;;;5022455;28;20064;-77
2022/07/19 00:11:42;;;;;;;6.22;3.42;;;17.30;99.90;;;;;;5020711;28;20052;-77
2022/07/19 00:14:08;;;;;;;7.55;4.15;;;17.30;99.90;;;;;;5012044;28;20046;-77
2022/07/19 00:16:34;;;;;;;6.45;3.38;;;17.30;99.90;;;;;;5019891;28;20132;-77
2022/07/19 00:18:59;;;;;;;3.53;3.03;;;17.20;99.90;;;;;;5015806;28;20041;-77
2022/07/19 00:21:25;;;;;;;4.97;3.70;;;17.20;99.90;;;;;;5017098;28;20041;-77
2022/07/19 00:23:50;;;;;;;4.53;3.30;;;17.20;99.90;;;;;;4999948;28;20038;-76
2022/07/19 00:26:16;;;;;;;7.22;3.60;;;17.10;99.90;;;;;;5008224;28;20674;-77
2022/07/19 00:28:41;;;;;;;3.50;3.20;;;17.20;99.90;;;;;;5005387;28;20053;-78
2022/07/19 00:31:07;;;;;;;5.38;3.83;;;17.10;99.90;;;;;;5014119;28;20057;-77
2022/07/19 00:33:32;;;;;;;5.40;3.17;;;17.10;99.90;;;;;;5022207;28;20049;-77
2022/07/19 00:35:58;;;;;;;3.50;3.17;;;17.10;99.90;;;;;;5016985;28;20036;-77
2022/07/19 00:38:23;;;;;;;5.25;3.20;;;17.10;99.90;;;;;;5010682;28;20049;-77
2022/07/19 00:40:49;;;;;;;5.00;3.55;;;17.10;99.90;;;;;;5008627;28;20048;-77
2022/07/19 00:43:14;;;;;;;5.18;3.10;;;17.20;99.90;;;;;;5009624;28;20046;-77
2022/07/19 00:45:40;;;;;;;5.35;3.58;;;17.20;99.90;;;;;;4998790;28;20037;-77
2022/07/19 00:48:06;;;;;;;6.10;3.90;;;17.20;99.90;;;;;;5005571;28;20133;-77
2022/07/19 00:50:32;;;;;;;7.47;3.78;;;17.20;99.90;;;;;;4988080;28;20153;-77
2022/07/19 00:53:00;;;;;;;6.00;3.70;;;17.10;99.90;;;;;;5012888;28;20049;-77
2022/07/19 00:55:28;;;;;;;5.93;4.00;;;17.10;99.90;;;;;;5016654;28;20451;-77
2022/07/19 00:57:58;;;;;;;5.85;3.42;;;17.10;99.90;;;;;;5017836;28;20033;-77
2022/07/19 01:00:24;;;;;;;3.67;2.97;;;17.10;99.90;;;;;;5000999;28;20050;-77
2022/07/19 01:02:51;;;;;;;4.50;3.50;;;17.10;99.90;;;;;;5015477;28;20037;-77
2022/07/19 01:05:17;;;;;;;5.78;3.55;;;17.10;99.90;;;;;;5015668;28;20708;-77
2022/07/19 01:07:43;;;;;;;5.15;3.75;;;17.10;99.90;;;;;;5010626;28;20041;-77
2022/07/19 01:10:11;;;;;;;6.22;3.75;;;17.10;99.90;;;;;;5000770;28;20743;-77
2022/07/19 01:12:37;;;;;;;6.15;3.33;;;17.00;99.90;;;;;;5005821;28;20568;-77
2022/07/19 01:15:13;;;;;;;5.60;3.50;;;17.00;99.90;;;;;;5014062;28;20060;-77
2022/07/19 01:17:39;;;;;;;7.20;3.20;;;17.00;99.90;;;;;;5011440;28;20041;-77
2022/07/19 01:20:05;;;;;;;8.65;3.17;;;16.90;99.90;;;;;;5001463;28;20048;-77
2022/07/19 01:22:31;;;;;;;6.47;3.40;;;17.00;99.90;;;;;;5010236;28;20400;-77
2022/07/19 01:24:57;;;;;;;6.80;3.92;;;16.90;99.90;;;;;;5016501;28;20038;-77
2022/07/19 01:27:22;;;;;;;6.47;3.55;;;17.00;99.90;;;;;;5003856;28;20070;-77
2022/07/19 01:29:48;;;;;;;6.07;3.35;;;17.00;99.90;;;;;;5001782;28;20045;-78
2022/07/19 01:32:13;;;;;;;5.43;4.00;;;16.90;99.90;;;;;;5013190;28;20481;-77
2022/07/19 01:34:39;;;;;;;7.63;3.72;;;16.90;99.90;;;;;;4997514;28;20056;-77
2022/07/19 01:37:04;;;;;;;3.92;3.53;;;16.90;99.90;;;;;;5018110;28;20047;-78
2022/07/19 01:39:30;;;;;;;5.97;3.80;;;16.90;99.90;;;;;;5001544;28;20051;-77
2022/07/19 01:41:55;;;;;;;5.25;3.85;;;16.90;99.90;;;;;;5006890;28;20030;-77
2022/07/19 01:44:21;;;;;;;6.75;3.15;;;16.90;99.90;;;;;;5004522;28;20128;-77
2022/07/19 01:46:46;;;;;;;9.15;3.78;;;16.90;99.90;;;;;;5001721;28;20200;-77
2022/07/19 01:49:12;;;;;;;4.35;3.38;;;16.90;99.90;;;;;;5009015;28;20041;-77
2022/07/19 01:51:38;;;;;;;6.07;3.55;;;16.90;99.90;;;;;;5003053;28;20095;-78
2022/07/19 01:54:03;;;;;;;3.72;3.40;;;16.90;99.90;;;;;;5008653;28;20045;-77
2022/07/19 01:56:29;;;;;;;6.13;3.35;;;17.00;99.90;;;;;;5003726;28;20030;-77
2022/07/19 01:58:54;;;;;;;5.70;3.33;;;16.80;99.90;;;;;;5005423;28;20068;-77
2022/07/19 02:01:20;;;;;;;5.80;3.60;;;16.80;99.90;;;;;;5019951;28;20041;-77
2022/07/19 02:03:45;;;;;;;7.22;3.28;;;16.90;99.90;;;;;;5003571;28;20098;-77
2022/07/19 02:06:11;;;;;;;5.32;3.78;;;16.80;99.90;;;;;;5012633;28;20051;-78
2022/07/19 02:08:37;;;;;;;5.15;3.65;;;16.70;99.90;;;;;;5002469;28;20048;-77
2022/07/19 02:11:34;;;;;;;5.22;3.45;;;16.70;99.90;;;;;;5002881;28;20476;-77
2022/07/19 02:13:48;;;;;;;9.85;4.20;;;16.70;99.90;;;;;;5009185;28;20575;-77
2022/07/19 02:16:14;;;;;;;5.00;3.58;;;16.70;99.90;;;;;;5017522;28;20049;-77
2022/07/19 02:18:39;;;;;;;3.85;3.45;;;16.70;99.90;;;;;;5006039;28;20029;-78
2022/07/19 02:21:05;;;;;;;7.68;3.50;;;16.70;99.90;;;;;;5002574;28;20079;-77
2022/07/19 02:23:31;;;;;;;7.35;3.15;;;16.70;99.90;;;;;;5007670;28;20041;-77
2022/07/19 02:25:56;;;;;;;3.40;2.95;;;16.70;99.90;;;;;;5012741;28;20045;-77
2022/07/19 02:28:22;;;;;;;8.05;3.72;;;16.60;99.90;;;;;;5012432;28;20072;-77
2022/07/19 02:30:47;;;;;;;3.97;3.25;;;16.60;99.90;;;;;;5014879;28;20041;-77
2022/07/19 02:33:13;;;;;;;7.70;4.00;;;16.60;99.90;;;;;;5016815;28;20049;-78
2022/07/19 02:35:38;;;;;;;9.38;4.40;;;16.60;99.90;;;;;;5013479;28;20041;-78
2022/07/19 02:38:04;;;;;;;6.78;3.63;;;16.50;99.90;;;;;;5018148;28;20129;-78
2022/07/19 02:40:30;;;;;;;3.90;3.28;;;16.40;99.90;;;;;;5014953;28;20100;-77
2022/07/19 02:42:55;;;;;;;5.13;4.00;;;16.40;99.90;;;;;;5006053;28;20042;-77
2022/07/19 02:45:21;;;;;;;8.43;4.10;;;16.90;99.90;;;;;;5003159;28;20041;-77
2022/07/19 02:47:47;;;;;;;7.53;4.10;;;16.30;99.90;;;;;;5000333;28;20064;-77
2022/07/19 02:50:12;;;;;;;5.38;4.20;;;16.30;99.90;;;;;;5000449;28;20146;-77
2022/07/19 02:52:38;;;;;;;7.10;4.25;;;16.30;99.90;;;;;;5014233;28;20042;-76
2022/07/19 02:55:05;;;;;;;5.90;3.55;;;16.30;99.90;;;;;;5005642;28;20042;-77
2022/07/19 02:57:30;;;;;;;9.70;4.03;;;16.20;99.90;;;;;;5004001;28;20052;-77
2022/07/19 02:59:56;;;;;;;9.45;4.05;;;16.30;99.90;;;;;;5003812;28;20042;-77
2022/07/19 03:02:21;;;;;;;5.35;3.95;;;16.30;99.90;;;;;;5008478;28;20038;-77
2022/07/19 03:04:47;;;;;;;5.95;4.47;;;16.30;99.90;;;;;;5017518;28;20416;-77
2022/07/19 03:07:13;;;;;;;11.38;4.70;;;16.40;99.90;;;;;;5018052;28;20124;-77
2022/07/19 03:09:39;;;;;;;6.80;4.15;;;16.50;99.90;;;;;;4999908;28;20192;-78
2022/07/19 03:12:05;;;;;;;9.13;3.63;;;16.60;99.90;;;;;;4997923;28;20037;-77
2022/07/19 03:14:30;;;;;;;13.32;4.20;;;16.70;99.90;;;;;;5007487;28;20046;-77
2022/07/19 03:16:56;;;;;;;11.82;4.05;;;16.80;99.90;;;;;;5016119;28;20559;-77
2022/07/19 03:19:21;;;;;;;7.35;4.50;;;16.60;99.90;;;;;;5010738;28;20046;-77
2022/07/19 03:21:48;;;;;;;10.75;4.15;;;16.50;99.90;;;;;;5008459;28;20045;-77
2022/07/19 03:24:13;;;;;;;8.95;4.32;;;16.40;99.90;;;;;;5001973;28;20056;-77
2022/07/19 03:26:39;;;;;;;15.77;4.25;;;16.40;99.90;;;;;;5002227;28;20045;-77
2022/07/19 03:29:04;;;;;;;10.63;4.00;;;16.30;99.90;;;;;;5014124;28;20056;-76
2022/07/19 03:31:30;;;;;;;10.73;4.00;;;16.30;99.90;;;;;;5010359;28;20156;-76
2022/07/19 03:33:55;;;;;;;10.40;4.45;;;16.30;99.90;;;;;;5002446;28;20037;-76
2022/07/19 03:36:21;;;;;;;8.65;4.68;;;16.30;99.90;;;;;;5009824;28;20041;-77
2022/07/19 03:38:47;;;;;;;15.63;4.65;;;16.20;99.90;;;;;;5001077;28;20099;-77
2022/07/19 03:41:12;;;;;;;8.70;4.53;;;16.30;99.90;;;;;;5000603;28;20057;-77
2022/07/19 03:43:38;;;;;;;5.72;4.60;;;16.20;99.90;;;;;;5009874;28;20506;-77
2022/07/19 03:46:04;;;;;;;8.45;4.43;;;16.20;99.90;;;;;;5015812;28;20084;-77
2022/07/19 03:48:29;;;;;;;4.45;3.58;;;16.20;99.90;;;;;;5004633;28;20069;-77
2022/07/19 03:50:55;;;;;;;5.50;3.42;;;16.30;99.90;;;;;;5018572;28;20674;-77
2022/07/19 03:53:21;;;;;;;7.03;4.13;;;16.20;99.90;;;;;;5009644;28;20056;-77
2022/07/19 03:55:47;;;;;;;7.97;4.72;;;16.40;99.90;;;;;;5004849;28;20048;-77
2022/07/19 03:58:13;;;;;;;8.52;3.80;;;16.50;99.90;;;;;;5012916;28;20037;-76
2022/07/19 04:00:39;;;;;;;7.55;3.42;;;16.60;99.90;;;;;;5014258;28;20037;-77
2022/07/19 04:03:04;;;;;;;5.28;4.15;;;16.60;99.90;;;;;;5011020;28;20037;-77
2022/07/19 04:05:30;;;;;;;9.15;4.60;;;16.60;99.90;;;;;;5003511;28;20064;-77
2022/07/19 04:07:56;;;;;;;15.38;5.30;;;16.60;99.90;;;;;;5002618;28;20045;-77
2022/07/19 04:10:22;;;;;;;7.90;4.30;;;16.60;99.90;;;;;;5002567;28;20111;-77
2022/07/19 04:12:47;;;;;;;23.77;4.93;;;16.60;99.90;;;;;;5003318;28;20132;-77
2022/07/19 04:15:13;;;;;;;12.55;3.72;;;16.80;99.90;;;;;;5018839;28;20126;-77
2022/07/19 04:17:38;;;;;;;11.55;3.60;;;17.10;99.90;;;;;;5021786;28;20508;-77
2022/07/19 04:20:05;;;;;;;8.38;3.25;;;17.50;99.90;;;;;;5007978;28;20041;-77
2022/07/19 04:22:31;;;;;;;13.07;4.32;;;17.90;99.90;;;;;;5020722;28;20083;-77
2022/07/19 04:24:57;;;;;;;9.73;3.67;;;18.20;99.90;;;;;;5013145;28;20041;-77
2022/07/19 04:27:22;;;;;;;10.43;3.63;;;18.50;99.90;;;;;;4998366;28;20049;-78
2022/07/19 04:29:48;;;;;;;6.03;3.50;;;18.60;99.90;;;;;;5020010;28;20037;-77
2022/07/19 04:32:14;;;;;;;9.70;3.45;;;18.80;99.90;;;;;;5017373;28;20039;-76
2022/07/19 04:34:40;;;;;;;3.88;3.47;;;19.20;99.90;;;;;;5013590;28;20037;-77
2022/07/19 04:37:05;;;;;;;6.13;3.47;;;19.60;99.90;;;;;;4999979;28;20049;-78
2022/07/19 04:39:31;;;;;;;7.53;4.97;;;20.00;99.90;;;;;;5004104;28;20047;-77
2022/07/19 04:41:57;;;;;;;4.93;3.92;;;20.50;99.90;;;;;;5011735;28;20038;-76
2022/07/19 04:44:22;;;;;;;7.15;4.07;;;20.90;99.90;;;;;;5020165;28;20042;-76
2022/07/19 04:46:48;;;;;;;8.85;4.50;;;21.20;99.90;;;;;;5011053;28;20084;-77
2022/07/19 04:49:13;;;;;;;7.65;3.83;;;21.10;99.90;;;;;;5004432;28;20046;-77
2022/07/19 04:51:39;;;;;;;5.00;4.50;;;20.90;99.90;;;;;;5012954;28;20037;-76
2022/07/19 04:54:04;;;;;;;7.82;4.20;;;20.70;99.90;;;;;;5015615;28;20080;-77
2022/07/19 04:56:30;;;;;;;12.57;4.65;;;20.60;99.90;;;;;;5002860;28;20449;-77
2022/07/19 04:58:55;;;;;;;8.85;4.35;;;20.50;99.90;;;;;;5017568;28;20831;-77
2022/07/19 05:01:21;;;;;;;10.82;3.70;;;20.40;99.90;;;;;;5002985;28;20101;-77
2022/07/19 05:03:46;;;;;;;9.02;4.20;;;20.60;99.90;;;;;;5002998;28;20081;-77
2022/07/19 05:06:12;;;;;;;6.43;4.50;;;20.80;99.90;;;;;;5006615;28;20409;-77
2022/07/19 05:08:38;;;;;;;8.93;3.88;;;20.80;99.90;;;;;;5006741;28;20511;-77
2022/07/19 05:11:03;;;;;;;5.63;4.07;;;20.80;99.90;;;;;;5020327;28;20504;-77
2022/07/19 05:13:29;;;;;;;10.45;4.22;;;20.90;99.90;;;;;;5007472;28;20062;-77
2022/07/19 05:15:54;;;;;;;6.22;4.35;;;20.80;99.90;;;;;;5019631;28;20046;-77
2022/07/19 05:18:20;;;;;;;6.40;4.55;;;20.90;99.90;;;;;;5010277;28;20496;-77
2022/07/19 05:20:45;;;;;;;5.78;4.70;;;21.10;99.90;;;;;;4989765;28;20064;-77
2022/07/19 05:23:11;;;;;;;9.35;4.38;;;21.80;99.90;;;;;;5003655;28;20056;-77
2022/07/19 05:25:37;;;;;;;8.77;5.45;;;22.60;99.90;;;;;;5013938;28;20069;-77
2022/07/19 05:28:03;;;;;;;5.10;4.10;;;23.60;99.90;;;;;;5012611;28;20045;-77
2022/07/19 05:30:29;;;;;;;10.80;4.10;;;24.50;99.90;;;;;;5014042;28;20480;-77
2022/07/19 05:32:54;;;;;;;10.23;4.80;;;25.30;99.90;;;;;;5008952;28;20045;-78
2022/07/19 05:35:20;;;;;;;10.85;4.22;;;26.20;99.90;;;;;;5002935;28;20060;-77
2022/07/19 05:37:45;;;;;;;8.65;3.90;;;26.70;99.90;;;;;;5015821;28;20439;-77
2022/07/19 05:40:11;;;;;;;5.85;4.30;;;27.30;99.90;;;;;;5002961;28;20922;-77
2022/07/19 05:42:37;;;;;;;9.23;4.85;;;27.80;99.90;;;;;;5000737;28;20049;-78
2022/07/19 05:45:03;;;;;;;11.52;4.50;;;28.30;99.90;;;;;;4988844;28;20038;-77
2022/07/19 05:47:28;;;;;;;13.00;4.72;;;28.70;99.90;;;;;;5020009;28;20092;-78
2022/07/19 05:49:54;;;;;;;7.45;4.97;;;28.60;99.90;;;;;;5019003;28;20045;-77
2022/07/19 05:52:19;;;;;;;7.70;4.65;;;28.30;99.90;;;;;;5016853;28;20134;-77
2022/07/19 05:54:45;;;;;;;6.78;4.55;;;27.80;99.90;;;;;;5014001;28;20045;-78
2022/07/19 05:57:10;;;;;;;10.02;4.32;;;27.40;99.90;;;;;;5009154;28;20492;-78
2022/07/19 05:59:36;;;;;;;7.05;4.55;;;27.00;99.90;;;;;;5011758;28;20041;-77
2022/07/19 06:02:03;;;;;;;13.40;4.97;;;26.80;99.90;;;;;;4997592;28;20038;-77
2022/07/19 06:04:28;;;;;;;6.53;4.50;;;26.60;99.90;;;;;;5017258;28;20156;-77
2022/07/19 06:06:54;;;;;;;9.40;4.20;;;26.50;99.90;;;;;;5007841;28;20131;-78
2022/07/19 06:09:20;;;;;;;7.55;5.05;;;26.40;99.90;;;;;;5006445;28;20041;-77
2022/07/19 06:11:45;;;;;;;11.02;5.25;;;26.50;99.90;;;;;;5011760;28;20041;-78
2022/07/19 06:14:12;;;;;;;7.07;4.72;;;26.60;99.90;;;;;;5005152;28;20560;-77
2022/07/19 06:16:40;;;;;;;6.28;4.47;;;26.70;99.90;;;;;;5000064;28;20045;-77
2022/07/19 06:19:05;;;;;;;5.65;4.90;;;26.70;99.90;;;;;;5006707;28;20058;-77
2022/07/19 06:21:31;;;;;;;7.60;5.05;;;26.70;99.90;;;;;;5012484;28;20612;-77
2022/07/19 06:23:57;;;;;;;7.35;4.72;;;26.80;99.90;;;;;;4997738;28;20472;-77
2022/07/19 06:26:22;;;;;;;12.52;4.80;;;27.00;99.90;;;;;;5017215;28;20095;-77
2022/07/19 06:28:48;;;;;;;5.13;4.30;;;27.20;99.90;;;;;;5000288;28;20051;-77
2022/07/19 06:31:16;;;;;;;7.25;4.50;;;27.20;99.90;;;;;;5013592;28;20046;-77
2022/07/19 06:33:44;;;;;;;11.32;4.60;;;27.30;99.90;;;;;;4997856;28;20041;-77
2022/07/19 06:36:10;;;;;;;7.38;4.80;;;27.40;99.90;;;;;;5014950;28;20038;-78
2022/07/19 06:38:36;;;;;;;7.45;4.88;;;27.20;99.90;;;;;;5013654;28;20088;-77
2022/07/19 06:41:02;;;;;;;8.65;4.90;;;27.40;99.90;;;;;;5017678;28;20088;-77
2022/07/19 06:43:27;;;;;;;8.43;4.47;;;27.50;99.90;;;;;;5004004;28;20526;-77
2022/07/19 06:45:53;;;;;;;10.85;4.90;;;27.60;99.90;;;;;;5003510;28;20546;-78
2022/07/19 06:48:18;;;;;;;8.30;5.13;;;27.70;99.90;;;;;;5013146;28;20480;-78
2022/07/19 06:50:44;;;;;;;5.88;4.57;;;27.90;99.90;;;;;;4988962;28;20123;-78
2022/07/19 06:53:09;;;;;;;10.40;5.28;;;28.00;99.90;;;;;;5000480;28;20050;-78
2022/07/19 06:55:36;;;;;;;8.75;4.80;;;28.20;99.90;;;;;;5018001;28;20038;-78
2022/07/19 06:58:02;;;;;;;8.35;5.03;;;28.30;99.90;;;;;;5018526;28;20499;-77
2022/07/19 07:00:27;;;;;;;8.73;5.53;;;28.20;99.80;;;;;;5014020;28;20042;-78
2022/07/19 07:02:53;;;;;;;9.55;4.68;;;28.20;99.00;;;;;;5003395;28;20038;-77
2022/07/19 07:05:19;;;;;;;8.52;4.47;;;28.30;99.40;;;;;;5010866;28;20044;-78
2022/07/19 07:07:44;;;;;;;8.10;4.57;;;28.50;99.60;;;;;;4998923;28;20429;-78
2022/07/19 07:10:11;;;;;;;10.35;5.20;;;28.60;99.20;;;;;;5015684;28;20052;-78
2022/07/19 07:12:37;;;;;;;7.43;4.53;;;28.80;98.90;;;;;;5011278;28;20057;-78
2022/07/19 07:15:04;;;;;;;6.07;5.13;;;29.00;98.80;;;;;;5009198;28;20624;-78
2022/07/19 07:17:29;;;;;;;10.80;4.63;;;29.10;98.70;;;;;;5001118;28;20099;-77
2022/07/19 07:19:56;;;;;;;9.52;4.45;;;29.20;98.50;;;;;;5018639;28;20549;-77
2022/07/19 07:22:21;;;;;;;7.90;4.72;;;29.30;98.40;;;;;;5015537;28;20095;-77
2022/07/19 07:24:47;;;;;;;8.95;4.00;;;29.50;98.30;;;;;;5001749;28;20507;-78
2022/07/19 07:27:12;;;;;;;7.15;4.70;;;29.60;98.20;;;;;;5021031;28;20108;-77
2022/07/19 07:29:38;;;;;;;9.00;4.60;;;29.70;97.60;;;;;;5008958;28;20114;-77
2022/07/19 07:32:04;;;;;;;6.40;4.35;;;29.90;97.80;;;;;;5004470;28;20121;-78
2022/07/19 07:34:29;;;;;;;10.23;3.97;;;30.00;97.90;;;;;;5015993;28;20045;-77
2022/07/19 07:36:55;;;;;;;9.10;3.58;;;30.10;97.10;;;;;;5004920;28;20053;-78
2022/07/19 07:39:23;;;;;;;12.80;3.92;;;30.20;97.60;;;;;;5020050;28;20033;-78
2022/07/19 07:41:49;;;;;;;10.90;3.70;;;30.30;97.20;;;;;;5020114;28;20454;-78
2022/07/19 07:44:14;;;;;;;9.63;3.47;;;30.40;96.60;;;;;;5006963;28;20099;-78
2022/07/19 07:46:40;;;;;;;9.95;3.63;;;30.50;96.70;;;;;;5007845;28;20072;-78
2022/07/19 07:49:06;;;;;;;12.75;4.45;;;30.80;96.30;;;;;;5004354;28;20496;-78
2022/07/19 07:51:31;;;;;;;8.35;3.63;;;30.90;95.70;;;;;;5021447;28;20153;-79
2022/07/19 07:54:00;;;;;;;9.88;3.50;;;31.00;95.70;;;;;;5004318;28;20053;-78
2022/07/19 07:56:26;;;;;;;12.93;3.50;;;31.10;95.70;;;;;;5009036;28;20091;-78
2022/07/19 07:58:51;;;;;;;8.85;4.53;;;31.10;95.60;;;;;;5009528;28;20049;-77
2022/07/19 08:01:17;;;;;;;7.10;3.75;;;31.20;95.90;;;;;;5019715;28;20049;-78
2022/07/19 08:03:43;;;;;;;9.85;3.22;;;31.40;95.80;;;;;;5014350;28;20049;-78
2022/07/19 08:06:09;;;;;;;8.70;2.95;;;31.40;95.50;;;;;;5006909;28;20071;-78
2022/07/19 08:08:34;;;;;;;10.32;3.60;;;31.50;94.80;;;;;;5022120;28;20057;-78
2022/07/19 08:11:00;;;;;;;8.82;2.75;;;31.50;94.20;;;;;;5020012;28;20065;-79
2022/07/19 08:13:26;;;;;;;7.07;3.28;;;31.50;94.30;;;;;;5022764;28;20053;-78
2022/07/19 08:15:51;;;;;;;7.57;3.10;;;31.60;94.50;;;;;;5012344;28;20459;-78
2022/07/19 08:18:17;;;;;;;6.40;2.72;;;31.70;94.50;;;;;;5015130;28;20491;-77
2022/07/19 08:20:43;;;;;;;13.93;3.17;;;31.70;94.50;;;;;;5021196;28;20524;-79
2022/07/19 08:23:09;;;;;;;9.38;2.83;;;31.80;94.60;;;;;;5015233;28;20052;-78
2022/07/19 08:25:34;;;;;;;10.55;3.05;;;31.90;94.60;;;;;;5004637;28;20440;-78
2022/07/19 08:28:01;;;;;;;7.03;3.25;;;31.90;94.70;;;;;;5016702;28;20038;-78
2022/07/19 08:30:26;;;;;;;5.57;2.63;;;32.00;93.90;;;;;;5016966;28;20053;-77
2022/07/19 08:32:52;;;;;;;5.10;2.10;;;32.10;93.40;;;;;;5021600;28;20042;-78
2022/07/19 08:35:18;;;;;;;9.77;2.67;;;32.10;94.30;;;;;;5007229;28;20053;-78
2022/07/19 08:37:43;;;;;;;5.03;2.22;;;32.20;93.80;;;;;;5002148;28;20045;-78
2022/07/19 08:40:09;;;;;;;5.40;2.78;;;32.40;93.90;;;;;;5014861;28;20053;-77
2022/07/19 08:42:36;;;;;;;8.57;2.47;;;32.30;93.30;;;;;;5014788;28;20041;-77
2022/07/19 08:45:05;;;;;;;6.05;2.38;;;32.40;93.70;;;;;;5012545;28;20496;-78
2022/07/19 08:47:31;;;;;;;4.32;2.50;;;32.40;93.60;;;;;;5019731;28;20045;-78
2022/07/19 08:49:59;;;;;;;6.13;2.65;;;32.50;93.90;;;;;;5016927;28;20045;-78
2022/07/19 08:52:25;;;;;;;3.53;2.33;;;32.60;93.40;;;;;;5006835;28;20049;-78
2022/07/19 08:54:51;;;;;;;9.40;2.65;;;32.60;93.60;;;;;;5004684;28;20042;-78
2022/07/19 09:00:01;;;;;;;6.50;2.57;;;32.90;93.70;;;;;;5018822;28;20056;-78
2022/07/19 09:02:27;;;;;;;5.40;2.35;;;32.90;93.00;;;;;;5018765;28;20046;-78
2022/07/19 09:05:05;;;;;;;5.82;2.00;;;33.00;92.50;;;;;;5021749;28;20099;-79
2022/07/19 09:07:30;;;;;;;6.20;1.85;;;33.20;91.40;;;;;;5009049;28;20112;-78
2022/07/19 09:10:17;;;;;;;3.63;1.73;;;33.30;91.40;;;;;;5016295;28;20470;-78
2022/07/19 09:13:08;;;;;;;3.08;1.67;;;33.40;89.90;;;;;;5009442;28;20488;-78
2022/07/19 09:15:45;;;;;;;7.90;1.73;;;33.60;90.30;;;;;;5002850;28;20041;-78
2022/07/19 09:18:17;;;;;;;6.22;1.52;;;33.40;90.40;;;;;;5021923;28;20492;-78
2022/07/19 09:20:43;;;;;;;6.13;1.83;;;33.30;90.90;;;;;;5006495;28;20128;-78
2022/07/19 09:23:10;;;;;;;4.85;1.77;;;33.50;90.20;;;;;;5002157;28;20112;-78
2022/07/19 09:25:39;;;;;;;9.40;2.83;;;33.50;89.90;;;;;;5020674;28;20041;-78
2022/07/19 09:28:05;;;;;;;2.70;1.70;;;33.60;89.90;;;;;;5019124;28;20049;-78
2022/07/19 09:30:33;;;;;;;6.60;1.67;;;33.60;90.00;;;;;;5020303;28;20042;-78
2022/07/19 09:33:20;;;;;;;11.77;2.53;;;33.70;89.40;;;;;;5003141;28;20434;-78
2022/07/19 09:35:49;;;;;;;9.45;1.63;;;33.80;90.80;;;;;;5019590;28;20037;-78
2022/07/19 09:38:20;;;;;;;7.80;1.80;;;33.70;87.50;;;;;;5021460;28;20408;-78
2022/07/19 09:40:48;;;;;;;5.50;1.83;;;33.80;88.10;;;;;;5016724;28;20037;-77
2022/07/19 09:43:14;;;;;;;4.57;1.40;;;33.60;86.90;;;;;;5018173;28;20136;-78
2022/07/19 09:45:40;;;;;;;3.97;1.77;;;33.70;87.40;;;;;;5023760;28;20038;-78
2022/07/19 09:48:05;;;;;;;8.20;1.98;;;33.80;88.60;;;;;;5018961;28;20095;-78
2022/07/19 09:50:31;;;;;;;4.97;1.33;;;33.90;87.70;;;;;;5017611;28;20197;-78
2022/07/19 09:53:00;;;;;;;4.78;1.80;;;33.60;84.70;;;;;;5010387;28;20550;-78
2022/07/19 09:55:27;;;;;;;8.32;1.95;;;33.70;84.60;;;;;;5017437;28;20045;-77
2022/07/19 09:57:55;;;;;;;6.80;1.98;;;33.70;85.60;;;;;;5020396;28;20073;-78
2022/07/19 10:00:23;;;;;;;2.58;1.20;;;33.70;85.20;;;;;;5012296;28;20053;-79
2022/07/19 10:02:54;;;;;;;4.97;1.60;;;33.90;86.70;;;;;;5004925;28;20030;-78
2022/07/19 10:05:20;;;;;;;7.30;1.40;;;34.00;86.20;;;;;;4997942;28;20046;-78
2022/07/19 10:07:46;;;;;;;17.45;1.88;;;34.00;84.20;;;;;;5010688;28;20041;-78
2022/07/19 10:10:15;;;;;;;8.43;1.60;;;34.00;83.70;;;;;;5022417;28;20042;-77
2022/07/19 10:12:43;;;;;;;5.18;1.65;;;33.90;83.30;;;;;;5021748;28;20041;-77
2022/07/19 10:15:12;;;;;;;6.65;1.60;;;33.80;82.40;;;;;;5008524;28;20053;-78
2022/07/19 10:17:47;;;;;;;4.80;1.65;;;33.70;80.40;;;;;;5019964;28;20087;-78
2022/07/19 10:20:18;;;;;;;4.65;1.60;;;33.70;81.50;;;;;;5001369;28;20038;-78
2022/07/19 10:22:45;;;;;;;3.95;1.67;;;33.70;81.10;;;;;;5003541;28;20049;-78
2022/07/19 10:25:13;;;;;;;5.13;1.85;;;33.90;84.50;;;;;;5019541;28;20741;-78
2022/07/19 10:27:42;;;;;;;5.97;1.63;;;33.90;81.40;;;;;;5013684;28;20048;-78
2022/07/19 10:30:07;;;;;;;6.85;1.67;;;34.10;82.90;;;;;;5019998;28;20176;-77
2022/07/19 10:32:33;;;;;;;6.40;1.55;;;34.20;81.90;;;;;;5007444;28;20133;-78
2022/07/19 10:35:29;;;;;;;7.78;1.70;;;34.10;80.60;;;;;;5018693;28;20038;-78
2022/07/19 10:38:01;;;;;;;2.65;1.23;;;33.90;80.00;;;;;;5013417;28;20145;-77
2022/07/19 10:40:56;;;;;;;6.60;1.33;;;33.80;79.70;;;;;;5020629;28;20050;-78
2022/07/19 10:43:23;;;;;;;4.30;1.20;;;33.90;79.90;;;;;;5017138;28;20041;-78
2022/07/19 10:45:59;;;;;;;7.82;1.88;;;34.00;81.30;;;;;;5019598;28;20130;-78
2022/07/19 10:48:48;;;;;;;9.43;2.20;;;33.90;79.50;;;;;;5011281;28;20060;-78
2022/07/19 10:51:28;;;;;;;8.52;1.85;;;34.00;81.40;;;;;;5018176;28;20439;-78
2022/07/19 10:53:55;;;;;;;3.25;1.27;;;34.00;80.20;;;;;;5020926;28;20045;-78
2022/07/19 10:56:28;;;;;;;7.20;1.40;;;34.20;80.80;;;;;;5019203;28;20497;-79
2022/07/19 10:58:57;;;;;;;3.30;1.40;;;34.30;80.50;;;;;;5020960;28;20135;-77
2022/07/19 11:01:24;;;;;;;6.50;1.73;;;34.40;80.40;;;;;;5007476;28;20041;-78
2022/07/19 11:03:52;;;;;;;8.18;1.63;;;34.50;79.50;;;;;;5018304;28;20100;-78
2022/07/19 11:06:23;;;;;;;7.80;1.90;;;34.70;79.30;;;;;;5029190;28;20041;-79
2022/07/19 11:08:53;;;;;;;8.93;1.63;;;34.90;76.90;;;;;;5022532;28;20381;-78
2022/07/19 11:11:19;;;;;;;7.60;1.48;;;34.90;78.20;;;;;;5022818;28;20987;-78
2022/07/19 11:13:53;;;;;;;5.65;1.90;;;35.10;77.10;;;;;;5020042;28;20125;-78
2022/07/19 11:16:19;;;;;;;2.55;1.10;;;35.10;76.40;;;;;;5006332;28;20514;-78
2022/07/19 11:18:45;;;;;;;8.48;1.30;;;35.10;76.70;;;;;;5008089;28;20033;-78
2022/07/19 11:21:15;;;;;;;7.70;1.50;;;35.10;77.20;;;;;;5024888;28;20045;-78
2022/07/19 11:23:42;;;;;;;7.70;1.48;;;35.00;75.70;;;;;;5027241;28;20079;-78
2022/07/19 11:26:15;;;;;;;3.47;1.70;;;35.10;74.00;;;;;;5023444;28;20421;-78
2022/07/19 11:28:42;;;;;;;7.82;1.77;;;35.20;74.40;;;;;;5010200;28;20049;-78
2022/07/19 11:31:15;;;;;;;7.68;1.80;;;35.10;74.10;;;;;;5014343;28;20128;-79
2022/07/19 11:33:41;;;;;;;6.25;1.42;;;35.20;73.70;;;;;;5023213;28;20041;-78
2022/07/19 11:36:08;;;;;;;7.47;1.83;;;35.00;73.80;;;;;;5021863;28;20052;-78
2022/07/19 11:38:39;;;;;;;6.82;1.42;;;34.80;75.20;;;;;;5005503;28;20565;-78
2022/07/19 11:41:16;;;;;;;6.63;1.88;;;34.70;73.90;;;;;;5020476;28;20029;-78
2022/07/19 11:43:41;;;;;;;7.15;1.83;;;34.60;73.00;;;;;;5019781;28;20057;-79
2022/07/19 11:46:07;;;;;;;9.98;1.30;;;34.60;72.30;;;;;;5020545;28;20045;-77
2022/07/19 11:48:33;;;;;;;4.53;1.38;;;34.70;73.40;;;;;;5022841;28;20049;-78
2022/07/19 11:51:09;;;;;;;5.78;1.70;;;34.80;72.60;;;;;;5017283;28;20045;-78
2022/07/19 11:53:37;;;;;;;2.33;1.63;;;34.90;74.40;;;;;;5013886;28;20205;-79
2022/07/19 11:56:05;;;;;;;8.77;1.90;;;34.90;72.70;;;;;;5025254;28;20034;-79
2022/07/19 11:58:32;;;;;;;5.55;1.58;;;35.00;72.20;;;;;;5011417;28;20053;-79
2022/07/19 12:01:05;;;;;;;6.38;1.45;;;35.10;73.70;;;;;;5020124;28;20044;-79
2022/07/19 12:03:30;;;;;;;6.20;1.80;;;35.20;73.90;;;;;;5019516;28;20088;-79
2022/07/19 12:06:05;;;;;;;6.88;1.50;;;35.20;72.50;;;;;;5024554;28;20037;-80
2022/07/19 12:08:36;;;;;;;11.60;1.50;;;35.40;73.50;;;;;;5011917;28;20068;-79
2022/07/19 12:11:15;;;;;;;4.00;1.65;;;35.40;71.70;;;;;;5006132;28;20129;-80
2022/07/19 12:13:40;;;;;;;4.40;1.50;;;35.50;71.20;;;;;;5023784;28;20053;-80
2022/07/19 12:16:10;;;;;;;4.32;2.35;;;35.50;71.00;;;;;;5020672;28;20045;-80
2022/07/19 12:18:49;;;;;;;5.05;1.65;;;35.50;69.50;;;;;;5017582;28;20040;-80
2022/07/19 12:21:16;;;;;;;9.57;1.58;;;35.50;69.10;;;;;;5017461;28;20133;-80
2022/07/19 12:23:42;;;;;;;4.90;1.02;;;35.60;69.40;;;;;;4988116;28;20069;-79
2022/07/19 12:26:09;;;;;;;4.63;1.23;;;35.60;68.90;;;;;;5021690;28;20041;-79
2022/07/19 12:28:35;;;;;;;4.28;1.73;;;35.50;67.80;;;;;;5017416;28;20048;-79
2022/07/19 12:31:06;;;;;;;3.95;1.58;;;35.50;68.90;;;;;;5015828;28;20034;-79
2022/07/19 12:33:32;;;;;;;4.55;1.50;;;35.50;68.50;;;;;;5025169;28;20038;-79
2022/07/19 12:35:58;;;;;;;4.55;1.33;;;35.40;67.90;;;;;;5008219;28;20041;-79
2022/07/19 12:38:32;;;;;;;3.58;1.23;;;35.50;68.80;;;;;;5020567;28;20052;-79
2022/07/19 12:41:06;;;;;;;10.98;1.27;;;35.40;68.80;;;;;;5011458;28;20064;-79
2022/07/19 12:43:32;;;;;;;4.13;1.40;;;35.40;67.90;;;;;;5024105;28;20048;-79
2022/07/19 12:46:02;;;;;;;9.35;1.60;;;35.40;64.70;;;;;;5019669;28;20041;-80
2022/07/19 12:48:28;;;;;;;3.40;1.20;;;35.40;65.70;;;;;;5009714;28;20784;-80